sensor_id;sensor_type;location;lat;lon;timestamp;pressure;altitude;pressure_sealevel;temperature;humidity
9077;BME280;4574;51.072;17.174;2023-02-03T00:00:13;100927.81;;;1.35;100.00
9077;BME280;4574;51.072;17.174;2023-02-03T00:02:42;100919.16;;;1.35;100.00
9077;BME280;4574;51.072;17.174;2023-02-03T00:05:11;100919.38;;;1.30;100.00
9077;BME280;4574;51.072;17.174;2023-02-03T00:07:40;100919.50;;;1.27;100.00
9077;BME280;4574;51.072;17.174;2023-02-03T00:10:10;100917.00;;;1.26;100.00
9077;BME280;4574;51.072;17.174;2023-02-03T00:12:40;100922.41;;;1.22;100.00
9077;BME280;4574;51.072;17.174;2023-02-03T00:15:09;100915.78;;;1.15;100.00
9077;BME280;4574;51.072;17.174;2023-02-03T00:17:39;100901.50;;;1.05;100.00
9077;BME280;4574;51.072;17.174;2023-02-03T00:20:08;100926.22;;;1.15;100.00
9077;BME280;4574;51.072;17.174;2023-02-03T00:22:37;100915.25;;;1.08;100.00
9077;BME280;4574;51.072;17.174;2023-02-03T00:25:06;100915.94;;;1.12;100.00
9077;BME280;4574;51.072;17.174;2023-02-03T00:27:34;100908.25;;;1.09;100.00
9077;BME280;4574;51.072;17.174;2023-02-03T00:30:05;100915.28;;;1.07;100.00
9077;BME280;4574;51.072;17.174;2023-02-03T00:32:34;100915.38;;;1.05;100.00
9077;BME280;4574;51.072;17.174;2023-02-03T00:35:03;100921.69;;;1.00;100.00
9077;BME280;4574;51.072;17.174;2023-02-03T00:37:31;100921.06;;;0.95;100.00
9077;BME280;4574;51.072;17.174;2023-02-03T00:40:00;100915.16;;;0.91;100.00
9077;BME280;4574;51.072;17.174;2023-02-03T00:42:28;100907.41;;;0.90;100.00
9077;BME280;4574;51.072;17.174;2023-02-03T00:44:57;100911.94;;;0.86;100.00
9077;BME280;4574;51.072;17.174;2023-02-03T00:47:27;100915.50;;;0.84;100.00
9077;BME280;4574;51.072;17.174;2023-02-03T00:49:56;100909.56;;;0.80;100.00
9077;BME280;4574;51.072;17.174;2023-02-03T00:52:24;100914.72;;;0.82;100.00
9077;BME280;4574;51.072;17.174;2023-02-03T00:54:53;100906.13;;;0.80;100.00
9077;BME280;4574;51.072;17.174;2023-02-03T00:57:21;100902.47;;;0.84;100.00
9077;BME280;4574;51.072;17.174;2023-02-03T00:59:49;100875.78;;;0.79;100.00
9077;BME280;4574;51.072;17.174;2023-02-03T01:02:18;100888.53;;;0.85;100.00
9077;BME280;4574;51.072;17.174;2023-02-03T01:04:48;100900.50;;;0.89;100.00
9077;BME280;4574;51.072;17.174;2023-02-03T01:07:17;100894.50;;;0.87;100.00
9077;BME280;4574;51.072;17.174;2023-02-03T01:09:45;100882.41;;;0.86;100.00
9077;BME280;4574;51.072;17.174;2023-02-03T01:12:14;100879.78;;;0.86;100.00
9077;BME280;4574;51.072;17.174;2023-02-03T01:14:42;100883.25;;;0.86;100.00
9077;BME280;4574;51.072;17.174;2023-02-03T01:17:11;100876.41;;;0.84;100.00
9077;BME280;4574;51.072;17.174;2023-02-03T01:19:39;100872.25;;;0.80;100.00
9077;BME280;4574;51.072;17.174;2023-02-03T01:22:09;100869.78;;;0.77;100.00
9077;BME280;4574;51.072;17.174;2023-02-03T01:24:38;100869.06;;;0.73;100.00
9077;BME280;4574;51.072;17.174;2023-02-03T01:27:06;100863.94;;;0.72;100.00
9077;BME280;4574;51.072;17.174;2023-02-03T01:29:35;100853.59;;;0.70;100.00
9077;BME280;4574;51.072;17.174;2023-02-03T01:32:04;100854.31;;;0.74;100.00
9077;BME280;4574;51.072;17.174;2023-02-03T01:34:33;100846.63;;;0.71;100.00
9077;BME280;4574;51.072;17.174;2023-02-03T01:37:01;100828.66;;;0.65;100.00
9077;BME280;4574;51.072;17.174;2023-02-03T01:39:31;100842.09;;;0.74;100.00
9077;BME280;4574;51.072;17.174;2023-02-03T01:41:59;100828.44;;;0.69;100.00
9077;BME280;4574;51.072;17.174;2023-02-03T01:44:40;100835.97;;;0.75;100.00
9077;BME280;4574;51.072;17.174;2023-02-03T01:47:22;100824.63;;;0.76;100.00
9077;BME280;4574;51.072;17.174;2023-02-03T01:49:57;100817.69;;;0.77;100.00
9077;BME280;4574;51.072;17.174;2023-02-03T01:52:27;100792.91;;;0.68;100.00
9077;BME280;4574;51.072;17.174;2023-02-03T01:54:59;100798.81;;;0.72;100.00
9077;BME280;4574;51.072;17.174;2023-02-03T01:57:32;100792.91;;;0.68;100.00
9077;BME280;4574;51.072;17.174;2023-02-03T02:00:04;100786.72;;;0.71;100.00
9077;BME280;4574;51.072;17.174;2023-02-03T02:02:34;100766.16;;;0.65;100.00
9077;BME280;4574;51.072;17.174;2023-02-03T02:05:05;100768.75;;;0.65;100.00
9077;BME280;4574;51.072;17.174;2023-02-03T02:07:36;100754.81;;;0.66;100.00
9077;BME280;4574;51.072;17.174;2023-02-03T02:10:07;100762.50;;;0.69;100.00
9077;BME280;4574;51.072;17.174;2023-02-03T02:12:35;100744.25;;;0.69;100.00
9077;BME280;4574;51.072;17.174;2023-02-03T02:15:05;100733.06;;;0.67;100.00
9077;BME280;4574;51.072;17.174;2023-02-03T02:17:53;100735.59;;;0.68;100.00
9077;BME280;4574;51.072;17.174;2023-02-03T02:23:54;100743.06;;;0.76;100.00
9077;BME280;4574;51.072;17.174;2023-02-03T02:26:53;100731.09;;;0.72;100.00
9077;BME280;4574;51.072;17.174;2023-02-03T02:29:45;100749.94;;;0.77;100.00
9077;BME280;4574;51.072;17.174;2023-02-03T02:32:28;100745.81;;;0.73;100.00
9077;BME280;4574;51.072;17.174;2023-02-03T02:35:03;100744.66;;;0.78;100.00
9077;BME280;4574;51.072;17.174;2023-02-03T02:37:39;100736.00;;;0.78;100.00
9077;BME280;4574;51.072;17.174;2023-02-03T02:40:17;100732.47;;;0.79;100.00
9077;BME280;4574;51.072;17.174;2023-02-03T02:43:03;100735.84;;;0.81;100.00
9077;BME280;4574;51.072;17.174;2023-02-03T02:45:42;100736.63;;;0.83;100.00
9077;BME280;4574;51.072;17.174;2023-02-03T02:48:18;100720.53;;;0.75;100.00
9077;BME280;4574;51.072;17.174;2023-02-03T02:50:52;100719.50;;;0.77;100.00
9077;BME280;4574;51.072;17.174;2023-02-03T02:53:24;100712.69;;;0.75;100.00
9077;BME280;4574;51.072;17.174;2023-02-03T02:55:56;100688.84;;;0.65;100.00
9077;BME280;4574;51.072;17.174;2023-02-03T02:58:27;100686.31;;;0.64;100.00
9077;BME280;4574;51.072;17.174;2023-02-03T03:00:57;100679.44;;;0.63;100.00
9077;BME280;4574;51.072;17.174;2023-02-03T03:03:26;100663.09;;;0.59;100.00
9077;BME280;4574;51.072;17.174;2023-02-03T03:06:01;100657.88;;;0.59;100.00
9077;BME280;4574;51.072;17.174;2023-02-03T03:08:35;100664.88;;;0.59;100.00
9077;BME280;4574;51.072;17.174;2023-02-03T03:11:05;100656.28;;;0.57;100.00
9077;BME280;4574;51.072;17.174;2023-02-03T03:13:37;100649.38;;;0.56;100.00
9077;BME280;4574;51.072;17.174;2023-02-03T03:16:08;100634.75;;;0.53;100.00
9077;BME280;4574;51.072;17.174;2023-02-03T03:18:42;100620.88;;;0.53;100.00
9077;BME280;4574;51.072;17.174;2023-02-03T03:21:14;100625.19;;;0.54;100.00
9077;BME280;4574;51.072;17.174;2023-02-03T03:23:46;100611.69;;;0.46;100.00
9077;BME280;4574;51.072;17.174;2023-02-03T03:26:19;100590.25;;;0.41;100.00
9077;BME280;4574;51.072;17.174;2023-02-03T03:28:53;100611.84;;;0.43;100.00
9077;BME280;4574;51.072;17.174;2023-02-03T03:31:24;100615.84;;;0.50;100.00
9077;BME280;4574;51.072;17.174;2023-02-03T03:33:54;100612.47;;;0.48;100.00
9077;BME280;4574;51.072;17.174;2023-02-03T03:36:28;100598.09;;;0.39;100.00
9077;BME280;4574;51.072;17.174;2023-02-03T03:39:02;100597.03;;;0.43;100.00
9077;BME280;4574;51.072;17.174;2023-02-03T03:41:38;100589.09;;;0.46;100.00
9077;BME280;4574;51.072;17.174;2023-02-03T03:44:14;100599.34;;;0.49;100.00
9077;BME280;4574;51.072;17.174;2023-02-03T03:46:47;100604.50;;;0.51;100.00
9077;BME280;4574;51.072;17.174;2023-02-03T03:49:20;100607.88;;;0.53;100.00
9077;BME280;4574;51.072;17.174;2023-02-03T03:51:54;100614.81;;;0.52;100.00
9077;BME280;4574;51.072;17.174;2023-02-03T03:54:25;100614.91;;;0.51;100.00
9077;BME280;4574;51.072;17.174;2023-02-03T03:56:57;100605.28;;;0.53;100.00
9077;BME280;4574;51.072;17.174;2023-02-03T03:59:30;100591.00;;;0.43;100.00
9077;BME280;4574;51.072;17.174;2023-02-03T04:02:00;100601.59;;;0.57;100.00
9077;BME280;4574;51.072;17.174;2023-02-03T04:04:35;100597.06;;;0.60;100.00
9077;BME280;4574;51.072;17.174;2023-02-03T04:07:04;100593.78;;;0.57;100.00
9077;BME280;4574;51.072;17.174;2023-02-03T04:09:33;100586.78;;;0.57;100.00
9077;BME280;4574;51.072;17.174;2023-02-03T04:12:03;100594.84;;;0.53;100.00
9077;BME280;4574;51.072;17.174;2023-02-03T04:14:34;100584.28;;;0.56;100.00
9077;BME280;4574;51.072;17.174;2023-02-03T04:17:04;100573.09;;;0.54;100.00
9077;BME280;4574;51.072;17.174;2023-02-03T04:19:34;100580.97;;;0.52;100.00
9077;BME280;4574;51.072;17.174;2023-02-03T04:22:03;100586.66;;;0.60;100.00
9077;BME280;4574;51.072;17.174;2023-02-03T04:24:31;100569.47;;;0.56;100.00
9077;BME280;4574;51.072;17.174;2023-02-03T04:27:00;100569.03;;;0.65;100.00
9077;BME280;4574;51.072;17.174;2023-02-03T04:29:31;100564.44;;;0.70;100.00
9077;BME280;4574;51.072;17.174;2023-02-03T04:31:59;100562.44;;;0.75;100.00
9077;BME280;4574;51.072;17.174;2023-02-03T04:34:28;100537.00;;;0.63;100.00
9077;BME280;4574;51.072;17.174;2023-02-03T04:36:58;100550.56;;;0.70;100.00
9077;BME280;4574;51.072;17.174;2023-02-03T04:39:26;100538.31;;;0.72;100.00
9077;BME280;4574;51.072;17.174;2023-02-03T04:41:55;100528.56;;;0.75;100.00
9077;BME280;4574;51.072;17.174;2023-02-03T04:44:23;100527.75;;;0.75;100.00
9077;BME280;4574;51.072;17.174;2023-02-03T04:46:51;100521.50;;;0.77;100.00
9077;BME280;4574;51.072;17.174;2023-02-03T04:49:20;100510.13;;;0.80;100.00
9077;BME280;4574;51.072;17.174;2023-02-03T04:51:49;100510.13;;;0.80;100.00
9077;BME280;4574;51.072;17.174;2023-02-03T04:54:19;100503.22;;;0.79;100.00
9077;BME280;4574;51.072;17.174;2023-02-03T04:56:47;100493.56;;;0.81;100.00
9077;BME280;4574;51.072;17.174;2023-02-03T04:59:16;100498.63;;;0.84;100.00
9077;BME280;4574;51.072;17.174;2023-02-03T05:01:44;100501.22;;;0.84;100.00
9077;BME280;4574;51.072;17.174;2023-02-03T05:04:15;100490.63;;;0.87;100.00
9077;BME280;4574;51.072;17.174;2023-02-03T05:06:46;100468.59;;;0.77;100.00
9077;BME280;4574;51.072;17.174;2023-02-03T05:09:14;100480.06;;;0.90;100.00
9077;BME280;4574;51.072;17.174;2023-02-03T05:11:44;100458.00;;;0.80;100.00
9077;BME280;4574;51.072;17.174;2023-02-03T05:14:13;100459.53;;;0.84;100.00
9077;BME280;4574;51.072;17.174;2023-02-03T05:16:41;100472.84;;;0.95;100.00
9077;BME280;4574;51.072;17.174;2023-02-03T05:19:10;100467.63;;;0.95;100.00
9077;BME280;4574;51.072;17.174;2023-02-03T05:21:38;100474.69;;;0.93;100.00
9077;BME280;4574;51.072;17.174;2023-02-03T05:24:07;100464.25;;;0.93;100.00
9077;BME280;4574;51.072;17.174;2023-02-03T05:26:35;100447.09;;;0.89;100.00
9077;BME280;4574;51.072;17.174;2023-02-03T05:29:05;100432.50;;;0.86;100.00
9077;BME280;4574;51.072;17.174;2023-02-03T05:31:34;100450.16;;;0.97;100.00
9077;BME280;4574;51.072;17.174;2023-02-03T05:34:03;100435.00;;;0.88;100.00
9077;BME280;4574;51.072;17.174;2023-02-03T05:36:32;100439.72;;;0.97;100.00
9077;BME280;4574;51.072;17.174;2023-02-03T05:39:00;100420.22;;;0.88;100.00
9077;BME280;4574;51.072;17.174;2023-02-03T05:41:29;100436.19;;;0.98;100.00
9077;BME280;4574;51.072;17.174;2023-02-03T05:44:16;100435.03;;;1.03;100.00
9077;BME280;4574;51.072;17.174;2023-02-03T05:46:44;100434.19;;;1.03;100.00
9077;BME280;4574;51.072;17.174;2023-02-03T05:49:13;100428.91;;;1.04;100.00
9077;BME280;4574;51.072;17.174;2023-02-03T05:51:42;100421.91;;;1.05;100.00
9077;BME280;4574;51.072;17.174;2023-02-03T05:54:11;100428.97;;;1.03;100.00
9077;BME280;4574;51.072;17.174;2023-02-03T05:56:40;100427.81;;;1.08;100.00
9077;BME280;4574;51.072;17.174;2023-02-03T05:59:08;100408.22;;;1.01;100.00
9077;BME280;4574;51.072;17.174;2023-02-03T06:01:38;100402.09;;;1.02;100.00
9077;BME280;4574;51.072;17.174;2023-02-03T06:04:09;100400.41;;;1.01;100.00
9077;BME280;4574;51.072;17.174;2023-02-03T06:06:38;100388.19;;;1.02;100.00
9077;BME280;4574;51.072;17.174;2023-02-03T06:09:07;100384.66;;;1.03;100.00
9077;BME280;4574;51.072;17.174;2023-02-03T06:11:36;100386.28;;;1.05;100.00
9077;BME280;4574;51.072;17.174;2023-02-03T06:14:05;100372.56;;;1.02;100.00
9077;BME280;4574;51.072;17.174;2023-02-03T06:16:33;100372.50;;;1.03;100.00
9077;BME280;4574;51.072;17.174;2023-02-03T06:19:04;100376.63;;;1.07;100.00
9077;BME280;4574;51.072;17.174;2023-02-03T06:21:32;100363.59;;;1.07;100.00
9077;BME280;4574;51.072;17.174;2023-02-03T06:24:00;100366.09;;;1.09;100.00
9077;BME280;4574;51.072;17.174;2023-02-03T06:26:31;100348.75;;;1.08;100.00
9077;BME280;4574;51.072;17.174;2023-02-03T06:29:00;100334.00;;;1.08;100.00
9077;BME280;4574;51.072;17.174;2023-02-03T06:31:29;100345.75;;;1.15;100.00
9077;BME280;4574;51.072;17.174;2023-02-03T06:33:58;100336.31;;;1.13;100.00
9077;BME280;4574;51.072;17.174;2023-02-03T06:36:29;100339.50;;;1.18;100.00
9077;BME280;4574;51.072;17.174;2023-02-03T06:38:58;100332.53;;;1.18;100.00
9077;BME280;4574;51.072;17.174;2023-02-03T06:41:26;100324.63;;;1.20;100.00
9077;BME280;4574;51.072;17.174;2023-02-03T06:43:56;100323.69;;;1.21;100.00
9077;BME280;4574;51.072;17.174;2023-02-03T06:46:25;100314.19;;;1.20;100.00
9077;BME280;4574;51.072;17.174;2023-02-03T06:48:56;100296.88;;;1.19;100.00
9077;BME280;4574;51.072;17.174;2023-02-03T06:51:24;100281.34;;;1.17;100.00
9077;BME280;4574;51.072;17.174;2023-02-03T06:53:54;100290.50;;;1.24;100.00
9077;BME280;4574;51.072;17.174;2023-02-03T06:56:24;100274.75;;;1.26;100.00
9077;BME280;4574;51.072;17.174;2023-02-03T06:58:53;100248.84;;;1.23;100.00
9077;BME280;4574;51.072;17.174;2023-02-03T07:01:21;100251.69;;;1.33;100.00
9077;BME280;4574;51.072;17.174;2023-02-03T07:03:51;100233.78;;;1.27;100.00
9077;BME280;4574;51.072;17.174;2023-02-03T07:06:23;100242.94;;;1.34;100.00
9077;BME280;4574;51.072;17.174;2023-02-03T07:08:56;100231.41;;;1.38;100.00
9077;BME280;4574;51.072;17.174;2023-02-03T07:11:29;100221.06;;;1.37;100.00
9077;BME280;4574;51.072;17.174;2023-02-03T07:13:57;100227.69;;;1.42;100.00
9077;BME280;4574;51.072;17.174;2023-02-03T07:16:26;100225.75;;;1.46;100.00
9077;BME280;4574;51.072;17.174;2023-02-03T07:18:55;100220.59;;;1.44;100.00
9077;BME280;4574;51.072;17.174;2023-02-03T07:21:24;100215.41;;;1.44;100.00
9077;BME280;4574;51.072;17.174;2023-02-03T07:23:53;100203.22;;;1.45;100.00
9077;BME280;4574;51.072;17.174;2023-02-03T07:26:23;100191.91;;;1.44;100.00
9077;BME280;4574;51.072;17.174;2023-02-03T07:28:52;100183.91;;;1.47;100.00
9077;BME280;4574;51.072;17.174;2023-02-03T07:31:21;100175.28;;;1.47;100.00
9077;BME280;4574;51.072;17.174;2023-02-03T07:33:50;100164.84;;;1.47;100.00
9077;BME280;4574;51.072;17.174;2023-02-03T07:36:19;100171.91;;;1.45;100.00
9077;BME280;4574;51.072;17.174;2023-02-03T07:38:48;100159.69;;;1.45;100.00
9077;BME280;4574;51.072;17.174;2023-02-03T07:41:17;100157.09;;;1.45;100.00
9077;BME280;4574;51.072;17.174;2023-02-03T07:43:47;100149.38;;;1.44;100.00
9077;BME280;4574;51.072;17.174;2023-02-03T07:46:16;100122.00;;;1.37;100.00
9077;BME280;4574;51.072;17.174;2023-02-03T07:48:45;100124.88;;;1.46;100.00
9077;BME280;4574;51.072;17.174;2023-02-03T07:51:14;100119.75;;;1.45;100.00
9077;BME280;4574;51.072;17.174;2023-02-03T07:53:44;100094.25;;;1.36;100.00
9077;BME280;4574;51.072;17.174;2023-02-03T07:56:12;100098.03;;;1.44;100.00
9077;BME280;4574;51.072;17.174;2023-02-03T07:58:41;100096.94;;;1.48;100.00
9077;BME280;4574;51.072;17.174;2023-02-03T08:01:14;100099.53;;;1.48;100.00
9077;BME280;4574;51.072;17.174;2023-02-03T08:03:43;100082.13;;;1.49;100.00
9077;BME280;4574;51.072;17.174;2023-02-03T08:06:11;100074.19;;;1.50;100.00
9077;BME280;4574;51.072;17.174;2023-02-03T08:08:40;100060.78;;;1.42;100.00
9077;BME280;4574;51.072;17.174;2023-02-03T08:11:10;100057.81;;;1.48;100.00
9077;BME280;4574;51.072;17.174;2023-02-03T08:13:39;100040.88;;;1.41;100.00
9077;BME280;4574;51.072;17.174;2023-02-03T08:16:08;100052.50;;;1.50;100.00
9077;BME280;4574;51.072;17.174;2023-02-03T08:18:37;100052.50;;;1.50;100.00
9077;BME280;4574;51.072;17.174;2023-02-03T08:21:06;100027.91;;;1.54;100.00
9077;BME280;4574;51.072;17.174;2023-02-03T08:23:38;100019.63;;;1.47;100.00
9077;BME280;4574;51.072;17.174;2023-02-03T08:26:07;100030.53;;;1.54;100.00
9077;BME280;4574;51.072;17.174;2023-02-03T08:28:35;99993.47;;;1.49;100.00
9077;BME280;4574;51.072;17.174;2023-02-03T08:31:08;100007.50;;;1.60;100.00
9077;BME280;4574;51.072;17.174;2023-02-03T08:33:39;99995.56;;;1.56;100.00
9077;BME280;4574;51.072;17.174;2023-02-03T08:36:24;99989.25;;;1.60;100.00
9077;BME280;4574;51.072;17.174;2023-02-03T08:38:53;99981.06;;;1.52;100.00
9077;BME280;4574;51.072;17.174;2023-02-03T08:41:21;99984.75;;;1.62;100.00
9077;BME280;4574;51.072;17.174;2023-02-03T08:43:50;99986.34;;;1.65;100.00
9077;BME280;4574;51.072;17.174;2023-02-03T08:46:19;99986.97;;;1.68;100.00
9077;BME280;4574;51.072;17.174;2023-02-03T08:48:49;99972.47;;;1.64;100.00
9077;BME280;4574;51.072;17.174;2023-02-03T08:51:21;99950.84;;;1.62;100.00
9077;BME280;4574;51.072;17.174;2023-02-03T08:53:50;99958.28;;;1.68;100.00
9077;BME280;4574;51.072;17.174;2023-02-03T08:56:20;99947.50;;;1.74;100.00
9077;BME280;4574;51.072;17.174;2023-02-03T08:58:48;99943.94;;;1.75;100.00
9077;BME280;4574;51.072;17.174;2023-02-03T09:01:17;99951.78;;;1.75;100.00
9077;BME280;4574;51.072;17.174;2023-02-03T09:03:46;99952.59;;;1.76;100.00
9077;BME280;4574;51.072;17.174;2023-02-03T09:06:16;99917.25;;;1.84;100.00
9077;BME280;4574;51.072;17.174;2023-02-03T09:08:48;99929.38;;;1.98;100.00
9077;BME280;4574;51.072;17.174;2023-02-03T09:11:17;99932.84;;;1.98;100.00
9077;BME280;4574;51.072;17.174;2023-02-03T09:13:46;99924.28;;;1.96;100.00
9077;BME280;4574;51.072;17.174;2023-02-03T09:16:17;99923.44;;;1.96;100.00
9077;BME280;4574;51.072;17.174;2023-02-03T09:18:47;99918.94;;;1.98;100.00
9077;BME280;4574;51.072;17.174;2023-02-03T09:21:17;99888.88;;;1.92;100.00
9077;BME280;4574;51.072;17.174;2023-02-03T09:24:03;99898.59;;;2.03;100.00
9077;BME280;4574;51.072;17.174;2023-02-03T09:26:32;99889.03;;;2.03;100.00
9077;BME280;4574;51.072;17.174;2023-02-03T09:29:01;99885.47;;;2.04;100.00
9077;BME280;4574;51.072;17.174;2023-02-03T09:31:30;99869.59;;;2.07;100.00
9077;BME280;4574;51.072;17.174;2023-02-03T09:34:02;99868.97;;;2.04;100.00
9077;BME280;4574;51.072;17.174;2023-02-03T09:36:32;99859.38;;;2.04;100.00
9077;BME280;4574;51.072;17.174;2023-02-03T09:39:01;99854.56;;;2.11;100.00
9077;BME280;4574;51.072;17.174;2023-02-03T09:41:58;99856.88;;;2.15;100.00
9077;BME280;4574;51.072;17.174;2023-02-03T09:44:37;99842.25;;;2.13;100.00
9077;BME280;4574;51.072;17.174;2023-02-03T09:47:11;99833.59;;;2.12;100.00
9077;BME280;4574;51.072;17.174;2023-02-03T09:49:45;99817.19;;;2.10;100.00
9077;BME280;4574;51.072;17.174;2023-02-03T09:52:20;99821.78;;;2.19;100.00
9077;BME280;4574;51.072;17.174;2023-02-03T09:54:55;99810.28;;;2.22;100.00
9077;BME280;4574;51.072;17.174;2023-02-03T09:57:27;99809.47;;;2.21;100.00
9077;BME280;4574;51.072;17.174;2023-02-03T09:59:58;99800.47;;;2.25;100.00
9077;BME280;4574;51.072;17.174;2023-02-03T10:02:48;99797.16;;;2.23;100.00
9077;BME280;4574;51.072;17.174;2023-02-03T10:05:24;99793.59;;;2.24;100.00
9077;BME280;4574;51.072;17.174;2023-02-03T10:08:05;99780.63;;;2.23;100.00
9077;BME280;4574;51.072;17.174;2023-02-03T10:10:39;99774.56;;;2.35;100.00
9077;BME280;4574;51.072;17.174;2023-02-03T10:13:18;99769.84;;;2.40;100.00
9077;BME280;4574;51.072;17.174;2023-02-03T10:16:14;99752.00;;;2.46;100.00
9077;BME280;4574;51.072;17.174;2023-02-03T10:18:46;99732.84;;;2.46;100.00
9077;BME280;4574;51.072;17.174;2023-02-03T10:21:27;99736.53;;;2.56;100.00
9077;BME280;4574;51.072;17.174;2023-02-03T10:24:03;99726.59;;;2.61;100.00
9077;BME280;4574;51.072;17.174;2023-02-03T10:26:33;99721.00;;;2.65;100.00
9077;BME280;4574;51.072;17.174;2023-02-03T10:29:07;99707.72;;;2.68;100.00
9077;BME280;4574;51.072;17.174;2023-02-03T10:31:41;99694.00;;;2.77;100.00
9077;BME280;4574;51.072;17.174;2023-02-03T10:34:15;99678.31;;;2.77;100.00
9077;BME280;4574;51.072;17.174;2023-02-03T10:36:54;99685.72;;;2.83;100.00
9077;BME280;4574;51.072;17.174;2023-02-03T10:39:38;99676.72;;;2.87;100.00
9077;BME280;4574;51.072;17.174;2023-02-03T10:42:09;99652.16;;;2.89;100.00
9077;BME280;4574;51.072;17.174;2023-02-03T10:44:40;99649.41;;;2.91;100.00
9077;BME280;4574;51.072;17.174;2023-02-03T10:47:20;99632.69;;;2.93;100.00
9077;BME280;4574;51.072;17.174;2023-02-03T10:49:52;99616.75;;;2.96;100.00
9077;BME280;4574;51.072;17.174;2023-02-03T10:52:29;99606.91;;;3.00;100.00
9077;BME280;4574;51.072;17.174;2023-02-03T10:55:04;99594.53;;;3.02;100.00
9077;BME280;4574;51.072;17.174;2023-02-03T10:57:34;99583.03;;;3.04;100.00
9077;BME280;4574;51.072;17.174;2023-02-03T11:00:18;99567.47;;;3.03;100.00
9077;BME280;4574;51.072;17.174;2023-02-03T11:02:54;99569.38;;;3.12;100.00
9077;BME280;4574;51.072;17.174;2023-02-03T11:05:26;99569.28;;;3.13;100.00
9077;BME280;4574;51.072;17.174;2023-02-03T11:07:55;99550.59;;;3.07;100.00
9077;BME280;4574;51.072;17.174;2023-02-03T11:10:31;99555.13;;;3.16;100.00
9077;BME280;4574;51.072;17.174;2023-02-03T11:13:17;99545.38;;;3.18;100.00
9077;BME280;4574;51.072;17.174;2023-02-03T11:15:55;99543.47;;;3.20;100.00
9077;BME280;4574;51.072;17.174;2023-02-03T11:18:30;99532.91;;;3.21;100.00
9077;BME280;4574;51.072;17.174;2023-02-03T11:21:06;99523.28;;;3.22;100.00
9077;BME280;4574;51.072;17.174;2023-02-03T11:23:37;99521.38;;;3.24;100.00
9077;BME280;4574;51.072;17.174;2023-02-03T11:26:14;99503.78;;;3.26;100.00
9077;BME280;4574;51.072;17.174;2023-02-03T11:28:45;99493.94;;;3.29;100.00
9077;BME280;4574;51.072;17.174;2023-02-03T11:31:17;99485.72;;;3.34;100.00
9077;BME280;4574;51.072;17.174;2023-02-03T11:33:47;99482.84;;;3.37;100.00
9077;BME280;4574;51.072;17.174;2023-02-03T11:36:16;99457.44;;;3.28;100.00
9077;BME280;4574;51.072;17.174;2023-02-03T11:38:46;99466.22;;;3.38;100.00
9077;BME280;4574;51.072;17.174;2023-02-03T11:41:19;99452.19;;;3.39;100.00
9077;BME280;4574;51.072;17.174;2023-02-03T11:43:54;99452.94;;;3.41;100.00
9077;BME280;4574;51.072;17.174;2023-02-03T11:46:23;99455.31;;;3.44;100.00
9077;BME280;4574;51.072;17.174;2023-02-03T11:49:01;99443.19;;;3.43;100.00
9077;BME280;4574;51.072;17.174;2023-02-03T11:51:40;99429.16;;;3.44;100.00
9077;BME280;4574;51.072;17.174;2023-02-03T11:54:21;99413.44;;;3.44;100.00
9077;BME280;4574;51.072;17.174;2023-02-03T11:57:24;99407.38;;;3.43;100.00
9077;BME280;4574;51.072;17.174;2023-02-03T12:00:18;99418.75;;;3.53;100.00
9077;BME280;4574;51.072;17.174;2023-02-03T12:03:10;99407.34;;;3.54;100.00
9077;BME280;4574;51.072;17.174;2023-02-03T12:06:03;99390.69;;;3.55;100.00
9077;BME280;4574;51.072;17.174;2023-02-03T12:08:51;99392.34;;;3.56;100.00
9077;BME280;4574;51.072;17.174;2023-02-03T12:11:35;99380.38;;;3.54;100.00
9077;BME280;4574;51.072;17.174;2023-02-03T12:14:16;99383.94;;;3.53;100.00
9077;BME280;4574;51.072;17.174;2023-02-03T12:20:06;99374.88;;;3.57;100.00
9077;BME280;4574;51.072;17.174;2023-02-03T12:22:49;99384.00;;;3.62;100.00
9077;BME280;4574;51.072;17.174;2023-02-03T12:25:32;99366.31;;;3.66;100.00
9077;BME280;4574;51.072;17.174;2023-02-03T12:28:13;99350.59;;;3.66;100.00
9077;BME280;4574;51.072;17.174;2023-02-03T12:31:06;99343.91;;;3.73;100.00
9077;BME280;4574;51.072;17.174;2023-02-03T12:33:41;99336.75;;;3.75;100.00
9077;BME280;4574;51.072;17.174;2023-02-03T12:36:15;99318.19;;;3.78;100.00
9077;BME280;4574;51.072;17.174;2023-02-03T12:38:48;99331.78;;;3.92;100.00
9077;BME280;4574;51.072;17.174;2023-02-03T12:41:21;99320.81;;;3.98;100.00
9077;BME280;4574;51.072;17.174;2023-02-03T12:43:57;99321.41;;;4.01;100.00
9077;BME280;4574;51.072;17.174;2023-02-03T12:46:30;99318.97;;;4.09;100.00
9077;BME280;4574;51.072;17.174;2023-02-03T12:49:02;99306.34;;;4.24;100.00
9077;BME280;4574;51.072;17.174;2023-02-03T12:51:37;99294.53;;;4.29;100.00
9077;BME280;4574;51.072;17.174;2023-02-03T12:54:17;99291.47;;;4.45;100.00
9077;BME280;4574;51.072;17.174;2023-02-03T12:56:50;99286.16;;;4.65;100.00
9077;BME280;4574;51.072;17.174;2023-02-03T12:59:24;99267.16;;;4.82;100.00
9077;BME280;4574;51.072;17.174;2023-02-03T13:01:59;99274.66;;;4.96;100.00
9077;BME280;4574;51.072;17.174;2023-02-03T13:04:33;99266.16;;;5.13;100.00
9077;BME280;4574;51.072;17.174;2023-02-03T13:07:08;99274.59;;;5.26;100.00
9077;BME280;4574;51.072;17.174;2023-02-03T13:09:47;99248.22;;;5.37;100.00
9077;BME280;4574;51.072;17.174;2023-02-03T13:12:26;99257.06;;;5.45;100.00
9077;BME280;4574;51.072;17.174;2023-02-03T13:15:03;99259.81;;;5.53;100.00
9077;BME280;4574;51.072;17.174;2023-02-03T13:17:41;99265.63;;;5.57;100.00
9077;BME280;4574;51.072;17.174;2023-02-03T13:20:15;99255.13;;;5.66;100.00
9077;BME280;4574;51.072;17.174;2023-02-03T13:22:46;99252.38;;;5.68;100.00
9077;BME280;4574;51.072;17.174;2023-02-03T13:25:21;99254.03;;;5.69;100.00
9077;BME280;4574;51.072;17.174;2023-02-03T13:28:01;99249.19;;;5.74;100.00
9077;BME280;4574;51.072;17.174;2023-02-03T13:30:46;99250.16;;;5.73;100.00
9077;BME280;4574;51.072;17.174;2023-02-03T13:33:39;99239.38;;;5.76;100.00
9077;BME280;4574;51.072;17.174;2023-02-03T13:39:30;99247.81;;;5.89;100.00
9077;BME280;4574;51.072;17.174;2023-02-03T13:42:18;99255.13;;;5.95;100.00